createdAt,value
2023-03-24T00:00:26.855Z,4.90
2023-03-24T00:01:49.710Z,4.20
2023-03-24T00:02:52.858Z,5.00
2023-03-24T00:03:55.812Z,4.60
2023-03-24T00:04:58.798Z,4.40
2023-03-24T00:06:03.756Z,4.70
2023-03-24T00:07:06.484Z,4.50
2023-03-24T00:08:09.328Z,4.30
2023-03-24T00:09:12.064Z,4.00
2023-03-24T00:10:18.161Z,4.50
2023-03-24T00:11:21.425Z,4.50
2023-03-24T00:12:25.387Z,4.90
2023-03-24T00:13:29.345Z,4.40
2023-03-24T00:14:32.094Z,4.10
2023-03-24T00:15:36.273Z,4.80
2023-03-24T00:16:42.907Z,4.10
2023-03-24T00:17:50.393Z,4.40
2023-03-24T00:18:54.304Z,4.50
2023-03-24T00:19:58.079Z,4.40
2023-03-24T00:21:00.898Z,4.00
2023-03-24T00:22:04.291Z,4.40
2023-03-24T00:23:07.054Z,3.90
2023-03-24T00:24:11.725Z,4.10
2023-03-24T00:25:15.474Z,4.30
2023-03-24T00:26:18.269Z,4.40
2023-03-24T00:27:21.175Z,3.80
2023-03-24T00:28:24.015Z,4.40
2023-03-24T00:29:27.468Z,4.30
2023-03-24T00:30:30.409Z,4.10
2023-03-24T00:31:33.361Z,4.30
2023-03-24T00:32:38.777Z,4.60
2023-03-24T00:33:43.897Z,3.90
2023-03-24T00:34:46.658Z,4.60
2023-03-24T00:35:49.708Z,4.10
2023-03-24T00:36:52.547Z,4.00
2023-03-24T00:37:55.445Z,4.00
2023-03-24T00:38:58.291Z,4.30
2023-03-24T00:40:01.123Z,4.60
2023-03-24T00:41:07.777Z,4.40
2023-03-24T00:42:10.924Z,3.90
2023-03-24T00:43:13.716Z,4.10
2023-03-24T00:44:20.401Z,4.30
2023-03-24T00:45:24.488Z,3.90
2023-03-24T00:46:27.757Z,3.70
2023-03-24T00:47:36.801Z,4.00
2023-03-24T00:48:42.564Z,4.30
2023-03-24T00:49:45.348Z,4.40
2023-03-24T00:50:49.557Z,3.80
2023-03-24T00:51:52.366Z,4.00
2023-03-24T00:52:56.110Z,4.00
2023-03-24T00:53:59.371Z,4.30
2023-03-24T00:55:05.067Z,4.20
2023-03-24T00:56:09.212Z,4.30
2023-03-24T00:57:21.650Z,4.10
2023-03-24T00:58:25.909Z,3.70
2023-03-24T00:59:29.800Z,4.60
2023-03-24T01:00:32.696Z,4.10
2023-03-24T01:01:36.719Z,4.50
2023-03-24T01:02:40.183Z,4.00
2023-03-24T01:03:48.332Z,4.10
2023-03-24T01:04:56.561Z,3.90
2023-03-24T01:06:04.560Z,4.40
2023-03-24T01:07:08.869Z,4.10
2023-03-24T01:08:11.647Z,4.20
2023-03-24T01:09:14.497Z,3.90
2023-03-24T01:10:17.864Z,4.20
2023-03-24T01:11:24.289Z,4.10
2023-03-24T01:12:32.533Z,3.90
2023-03-24T01:13:35.341Z,4.30
2023-03-24T01:14:38.092Z,4.30
2023-03-24T01:15:41.536Z,4.60
2023-03-24T01:16:44.356Z,3.50
2023-03-24T01:17:48.732Z,4.70
2023-03-24T01:18:52.712Z,4.30
2023-03-24T01:19:56.193Z,4.10
2023-03-24T01:20:59.046Z,4.20
2023-03-24T01:22:02.589Z,4.30
2023-03-24T01:23:05.965Z,3.80
2023-03-24T01:24:09.365Z,3.70
2023-03-24T01:25:16.605Z,4.20
2023-03-24T01:26:19.886Z,3.90
2023-03-24T01:27:23.170Z,4.20
2023-03-24T01:28:27.246Z,4.30
2023-03-24T01:29:30.513Z,5.00
2023-03-24T01:30:33.449Z,4.40
2023-03-24T01:31:36.645Z,4.30
2023-03-24T01:32:39.545Z,4.20
2023-03-24T01:33:42.370Z,4.80
2023-03-24T01:34:45.130Z,5.20
2023-03-24T01:35:48.599Z,5.30
2023-03-24T01:36:51.464Z,4.70
2023-03-24T01:37:54.243Z,5.20
2023-03-24T01:38:58.530Z,5.60
2023-03-24T01:40:02.285Z,5.40
2023-03-24T01:41:06.469Z,4.10
2023-03-24T01:42:18.966Z,5.30
2023-03-24T01:43:27.227Z,5.30
2023-03-24T01:44:38.243Z,4.20
2023-03-24T01:45:59.643Z,7.20
2023-03-24T01:47:06.145Z,8.40
2023-03-24T01:48:17.049Z,8.50
2023-03-24T01:49:21.069Z,10.50
2023-03-24T01:50:24.531Z,10.00
2023-03-24T01:51:49.228Z,10.20
2023-03-24T01:52:52.257Z,9.10
2023-03-24T01:54:22.021Z,10.90
2023-03-24T01:55:29.855Z,10.10
2023-03-24T01:56:36.916Z,7.40
2023-03-24T01:57:47.697Z,9.40
2023-03-24T01:58:56.552Z,7.50
2023-03-24T02:00:12.719Z,9.50
2023-03-24T02:01:34.438Z,5.10
2023-03-24T02:03:07.968Z,5.40
2023-03-24T02:04:16.136Z,5.80
2023-03-24T02:05:19.645Z,5.40
2023-03-24T02:06:26.111Z,7.60
2023-03-24T02:07:52.295Z,6.60
2023-03-24T02:08:58.693Z,5.70
2023-03-24T02:10:13.467Z,5.70
2023-03-24T02:11:16.519Z,5.20
2023-03-24T02:12:25.833Z,14.00
2023-03-24T02:13:29.365Z,10.50
2023-03-24T02:14:32.421Z,10.60
2023-03-24T02:15:43.148Z,8.40
2023-03-24T02:16:57.778Z,9.90
2023-03-24T02:18:25.499Z,7.10
2023-03-24T02:20:09.733Z,10.00
2023-03-24T02:21:36.038Z,13.10
2023-03-24T02:23:19.199Z,13.90
2023-03-24T02:24:34.094Z,10.10
2023-03-24T02:25:55.833Z,10.10
2023-03-24T02:27:20.464Z,9.10
2023-03-24T02:28:48.627Z,8.00
2023-03-24T02:30:04.215Z,10.40
2023-03-24T02:31:29.672Z,11.50
2023-03-24T02:33:27.285Z,12.60
2023-03-24T02:34:56.349Z,12.10
2023-03-24T02:36:08.572Z,13.40
2023-03-24T02:37:18.957Z,14.40
2023-03-24T02:38:35.020Z,16.90
2023-03-24T02:40:22.647Z,8.30
2023-03-24T02:41:55.995Z,9.40
2023-03-24T02:43:29.574Z,10.40
2023-03-24T02:45:17.163Z,9.90
2023-03-24T02:47:01.252Z,11.00
2023-03-24T02:48:21.120Z,10.90
2023-03-24T02:51:00.983Z,8.30
2023-03-24T02:52:12.711Z,8.80
2023-03-24T02:53:39.550Z,7.40
2023-03-24T02:55:01.853Z,7.00
2023-03-24T02:56:16.960Z,5.80
2023-03-24T02:57:42.985Z,5.20
2023-03-24T02:59:10.394Z,5.00
2023-03-24T03:00:22.388Z,3.80
2023-03-24T03:02:06.364Z,4.10
2023-03-24T03:03:38.369Z,4.10
2023-03-24T03:04:50.199Z,4.40
2023-03-24T03:05:58.808Z,4.30
2023-03-24T03:07:10.198Z,4.20
2023-03-24T03:08:17.510Z,3.70
2023-03-24T03:09:22.755Z,4.20
2023-03-24T03:10:31.118Z,3.60
2023-03-24T03:11:34.243Z,3.60
2023-03-24T03:12:39.334Z,3.90
2023-03-24T03:13:52.541Z,3.70
2023-03-24T03:15:02.616Z,3.50
2023-03-24T03:16:11.044Z,3.60
2023-03-24T03:17:18.785Z,3.60
2023-03-24T03:18:43.773Z,3.90
2023-03-24T03:19:55.521Z,3.90
2023-03-24T03:21:04.586Z,4.00
2023-03-24T03:22:21.065Z,4.10
2023-03-24T03:23:28.507Z,3.50
2023-03-24T03:24:37.351Z,3.80
2023-03-24T03:25:46.386Z,3.70
2023-03-24T03:26:50.091Z,3.60
2023-03-24T03:27:56.828Z,3.90
2023-03-24T03:29:06.017Z,4.20
2023-03-24T03:30:20.200Z,3.60
2023-03-24T03:31:30.097Z,3.90
2023-03-24T03:32:39.167Z,3.90
2023-03-24T03:34:00.044Z,3.40
2023-03-24T03:35:14.686Z,3.70
2023-03-24T03:36:23.789Z,4.10
2023-03-24T03:37:52.804Z,3.70
2023-03-24T03:39:10.223Z,3.40
2023-03-24T03:40:20.692Z,3.60
2023-03-24T03:41:26.263Z,3.50
2023-03-24T03:42:29.289Z,3.80
2023-03-24T03:43:33.718Z,3.80
2023-03-24T03:44:36.695Z,4.00
2023-03-24T03:45:39.654Z,4.00
2023-03-24T03:46:43.142Z,3.10
2023-03-24T03:47:48.435Z,3.90
2023-03-24T03:48:51.583Z,3.70
2023-03-24T03:49:54.920Z,3.60
2023-03-24T03:51:10.302Z,3.60
2023-03-24T03:52:17.669Z,3.60
2023-03-24T03:53:27.113Z,3.40
2023-03-24T03:54:31.846Z,3.60
2023-03-24T03:55:35.577Z,4.00
2023-03-24T03:56:39.668Z,3.50
2023-03-24T03:57:55.700Z,3.60
2023-03-24T03:59:07.738Z,3.50
2023-03-24T04:00:16.986Z,3.60
2023-03-24T04:01:34.266Z,4.00
2023-03-24T04:02:58.710Z,3.60
2023-03-24T04:04:09.531Z,3.60
2023-03-24T04:05:35.259Z,3.70
2023-03-24T04:06:53.912Z,3.90
2023-03-24T04:08:23.288Z,4.20
2023-03-24T04:10:15.456Z,4.20
2023-03-24T04:11:32.174Z,3.60
2023-03-24T04:13:09.702Z,3.90
2023-03-24T04:14:51.917Z,3.90
2023-03-24T04:16:47.104Z,3.70
2023-03-24T04:18:11.776Z,3.90
2023-03-24T04:19:46.110Z,3.70
2023-03-24T04:21:06.317Z,3.90
2023-03-24T04:23:28.418Z,3.60
2023-03-24T04:24:50.497Z,4.00
2023-03-24T04:26:26.705Z,3.80
2023-03-24T04:27:47.830Z,4.20
2023-03-24T04:28:58.144Z,4.10
2023-03-24T04:30:06.332Z,3.60
2023-03-24T04:31:19.043Z,4.00
2023-03-24T04:32:28.604Z,3.90
2023-03-24T04:33:40.315Z,4.20
2023-03-24T04:34:50.930Z,4.00
2023-03-24T04:36:42.453Z,4.00
2023-03-24T04:38:18.619Z,3.80
2023-03-24T04:39:29.019Z,3.90
2023-03-24T04:40:36.923Z,4.00
2023-03-24T04:41:43.156Z,4.00
2023-03-24T04:42:54.645Z,4.00
2023-03-24T04:44:01.300Z,3.60
2023-03-24T04:45:07.115Z,4.10
2023-03-24T04:46:10.304Z,4.30
2023-03-24T04:47:38.616Z,4.40
2023-03-24T04:48:57.538Z,4.70
2023-03-24T04:50:11.442Z,4.40
2023-03-24T04:51:16.985Z,4.10
2023-03-24T04:52:29.418Z,4.10
2023-03-24T04:53:32.574Z,4.00
2023-03-24T04:54:35.521Z,3.90
2023-03-24T04:55:49.982Z,4.30
2023-03-24T04:57:04.504Z,4.40
2023-03-24T04:58:22.285Z,4.70
2023-03-24T04:59:26.185Z,4.40
2023-03-24T05:00:29.572Z,4.80
2023-03-24T05:01:32.805Z,5.00
2023-03-24T05:02:53.673Z,5.10
2023-03-24T05:04:02.240Z,4.80
2023-03-24T05:05:05.465Z,5.40
2023-03-24T05:06:16.931Z,4.80
2023-03-24T05:07:21.416Z,5.10
2023-03-24T05:08:26.259Z,5.80
2023-03-24T05:09:31.575Z,5.10
2023-03-24T05:10:35.979Z,5.10
2023-03-24T05:11:40.383Z,5.60
2023-03-24T05:12:44.104Z,5.60
2023-03-24T05:13:49.500Z,5.20
2023-03-24T05:14:52.383Z,5.30
2023-03-24T05:15:55.463Z,5.10
2023-03-24T05:17:05.866Z,5.30
2023-03-24T05:18:10.104Z,4.90
2023-03-24T05:19:13.139Z,5.20
2023-03-24T05:20:16.532Z,5.60
2023-03-24T05:21:22.217Z,5.50
2023-03-24T05:22:25.326Z,5.90
2023-03-24T05:23:28.097Z,5.50
2023-03-24T05:24:31.459Z,6.20
2023-03-24T05:25:35.295Z,5.20
2023-03-24T05:26:38.054Z,6.00
2023-03-24T05:27:48.583Z,5.70
2023-03-24T05:28:57.119Z,6.20
2023-03-24T05:29:59.957Z,5.70
2023-03-24T05:31:03.424Z,5.50
2023-03-24T05:32:26.077Z,6.20
2023-03-24T05:33:28.969Z,5.80
2023-03-24T05:34:32.137Z,6.40
2023-03-24T05:35:49.213Z,6.40
2023-03-24T05:36:52.210Z,6.10
2023-03-24T05:37:57.026Z,5.50
2023-03-24T05:38:59.899Z,6.00
2023-03-24T05:40:11.963Z,6.40
2023-03-24T05:41:25.373Z,5.70
2023-03-24T05:42:28.610Z,5.50
2023-03-24T05:43:32.055Z,5.40
2023-03-24T05:44:43.785Z,6.20
2023-03-24T05:45:51.432Z,5.80
2023-03-24T05:47:05.798Z,6.70
2023-03-24T05:48:08.710Z,6.00
2023-03-24T05:49:31.798Z,5.60
2023-03-24T05:50:34.826Z,5.70
2023-03-24T05:51:37.836Z,5.40
2023-03-24T05:52:43.290Z,6.30
2023-03-24T05:54:11.549Z,6.50
2023-03-24T05:55:19.447Z,6.20
2023-03-24T05:56:23.658Z,6.30
2023-03-24T05:57:44.801Z,6.70
2023-03-24T05:58:57.567Z,6.20
2023-03-24T06:00:09.507Z,6.50
2023-03-24T06:01:19.090Z,6.00
2023-03-24T06:02:25.312Z,6.90
2023-03-24T06:03:34.701Z,6.50
2023-03-24T06:04:46.718Z,6.60
2023-03-24T06:05:52.778Z,7.40
2023-03-24T06:06:59.014Z,8.10
2023-03-24T06:08:04.010Z,7.10
2023-03-24T06:09:09.146Z,6.60
2023-03-24T06:10:14.426Z,7.50
2023-03-24T06:11:21.604Z,8.00
2023-03-24T06:12:31.024Z,7.40
2023-03-24T06:13:37.957Z,7.60
2023-03-24T06:14:40.838Z,7.10
2023-03-24T06:15:48.041Z,7.30
2023-03-24T06:17:14.889Z,6.90
2023-03-24T06:18:18.865Z,7.50
2023-03-24T06:19:22.687Z,7.50
2023-03-24T06:20:50.793Z,8.00
2023-03-24T06:22:00.627Z,7.80
2023-03-24T06:23:05.453Z,8.00
2023-03-24T06:24:21.580Z,8.30
2023-03-24T06:25:28.470Z,7.70
2023-03-24T06:26:38.233Z,7.40
2023-03-24T06:27:47.871Z,7.40
2023-03-24T06:28:55.323Z,7.90
2023-03-24T06:29:59.468Z,7.30
2023-03-24T06:31:05.488Z,7.40
2023-03-24T06:32:11.006Z,8.00
2023-03-24T06:33:17.976Z,7.80
2023-03-24T06:34:22.248Z,7.30
2023-03-24T06:35:36.038Z,7.20
2023-03-24T06:36:42.364Z,7.80
2023-03-24T06:37:45.962Z,7.30
2023-03-24T06:38:51.525Z,7.30
2023-03-24T06:39:56.263Z,7.70
2023-03-24T06:41:04.653Z,8.20
2023-03-24T06:42:07.570Z,8.40
2023-03-24T06:43:10.775Z,7.40
2023-03-24T06:44:14.701Z,8.20
2023-03-24T06:45:17.998Z,8.00
2023-03-24T06:46:22.104Z,7.20
2023-03-24T06:47:25.065Z,7.00
2023-03-24T06:48:28.276Z,7.60
2023-03-24T06:49:37.298Z,6.90
2023-03-24T06:50:41.172Z,7.10
2023-03-24T06:51:45.401Z,7.10
2023-03-24T06:52:49.010Z,7.50
2023-03-24T06:53:53.929Z,8.10
2023-03-24T06:54:58.262Z,8.00
2023-03-24T06:56:02.510Z,7.80
2023-03-24T06:57:11.213Z,6.80
2023-03-24T06:58:34.538Z,7.70
2023-03-24T06:59:41.097Z,7.40
2023-03-24T07:00:46.739Z,7.10
2023-03-24T07:02:02.310Z,7.70
2023-03-24T07:03:09.086Z,7.10
2023-03-24T07:04:13.058Z,6.90
2023-03-24T07:05:29.501Z,7.70
2023-03-24T07:06:40.260Z,6.30
2023-03-24T07:08:28.036Z,6.90
2023-03-24T07:09:18.910Z,6.70
2023-03-24T07:10:21.836Z,6.80
2023-03-24T07:11:25.521Z,7.00
2023-03-24T07:12:31.170Z,6.70
2023-03-24T07:13:34.401Z,6.80
2023-03-24T07:14:39.896Z,6.30
2023-03-24T07:15:42.876Z,6.30
2023-03-24T07:16:46.285Z,6.00
2023-03-24T07:18:24.034Z,6.60
2023-03-24T07:19:33.742Z,6.10
2023-03-24T07:20:55.184Z,5.60
2023-03-24T07:21:59.023Z,6.20
2023-03-24T07:23:12.821Z,5.50
2023-03-24T07:24:32.404Z,6.10
2023-03-24T07:25:46.064Z,4.70
2023-03-24T07:26:53.303Z,5.20
2023-03-24T07:27:59.119Z,5.30
2023-03-24T07:29:01.926Z,4.70
2023-03-24T07:30:14.160Z,5.10
2023-03-24T07:31:20.338Z,5.00
2023-03-24T07:32:25.798Z,5.30
2023-03-24T07:33:28.676Z,4.70
2023-03-24T07:34:32.105Z,5.20
2023-03-24T07:35:35.427Z,4.90
2023-03-24T07:36:38.323Z,4.80
2023-03-24T07:37:42.978Z,5.20
2023-03-24T07:38:45.825Z,4.80
2023-03-24T07:39:56.028Z,5.20
2023-03-24T07:40:59.905Z,5.00
2023-03-24T07:42:04.368Z,5.20
2023-03-24T07:43:15.792Z,5.50
2023-03-24T07:44:37.390Z,5.10
2023-03-24T07:45:42.100Z,4.40
2023-03-24T07:46:45.452Z,4.50
2023-03-24T07:47:48.366Z,5.30
2023-03-24T07:48:51.406Z,4.90
2023-03-24T07:49:54.226Z,4.60
2023-03-24T07:50:57.232Z,5.10
2023-03-24T07:52:18.008Z,4.60
2023-03-24T07:53:25.022Z,4.70
2023-03-24T07:54:27.965Z,5.50
2023-03-24T07:55:31.079Z,5.70
2023-03-24T07:56:42.828Z,5.20
2023-03-24T07:57:47.567Z,4.60
2023-03-24T07:58:50.694Z,5.20
2023-03-24T08:00:17.909Z,5.00
2023-03-24T08:01:27.093Z,5.00
2023-03-24T08:02:30.669Z,5.50
2023-03-24T08:03:56.415Z,5.00
2023-03-24T08:05:23.374Z,5.10
2023-03-24T08:06:45.576Z,5.20
2023-03-24T08:07:53.466Z,5.10
2023-03-24T08:08:56.534Z,6.30
2023-03-24T08:09:59.293Z,5.20
2023-03-24T08:11:02.245Z,5.50
2023-03-24T08:12:17.392Z,5.20
2023-03-24T08:13:23.233Z,5.20
2023-03-24T08:14:26.379Z,5.50
2023-03-24T08:15:29.448Z,7.40
2023-03-24T08:16:32.242Z,5.60
2023-03-24T08:17:35.947Z,5.80
2023-03-24T08:18:39.073Z,6.10
2023-03-24T08:19:56.272Z,5.70
2023-03-24T08:21:02.329Z,7.10
2023-03-24T08:22:05.131Z,6.00
2023-03-24T08:23:08.489Z,5.80
2023-03-24T08:24:11.431Z,6.00
2023-03-24T08:25:14.794Z,5.90
2023-03-24T08:26:18.084Z,6.30
2023-03-24T08:27:20.832Z,6.40
2023-03-24T08:28:24.016Z,5.90
2023-03-24T08:29:26.789Z,6.50
2023-03-24T08:30:31.035Z,6.10
2023-03-24T08:31:35.833Z,7.10
2023-03-24T08:32:44.322Z,6.50
2023-03-24T08:33:47.233Z,6.30
2023-03-24T08:34:49.936Z,6.50
2023-03-24T08:35:57.550Z,7.30
2023-03-24T08:37:00.387Z,7.30
2023-03-24T08:38:06.670Z,6.40
2023-03-24T08:39:09.945Z,6.00
2023-03-24T08:40:19.566Z,6.70
2023-03-24T08:41:30.687Z,6.80
2023-03-24T08:42:33.523Z,5.90
2023-03-24T08:43:37.616Z,6.60
2023-03-24T08:44:40.521Z,5.60
2023-03-24T08:45:43.436Z,5.80
2023-03-24T08:46:46.249Z,5.90
2023-03-24T08:47:50.684Z,6.40
2023-03-24T08:48:53.471Z,5.70
2023-03-24T08:49:58.107Z,6.10
2023-03-24T08:51:00.887Z,6.20
2023-03-24T08:52:04.020Z,6.30
2023-03-24T08:53:07.610Z,6.60
2023-03-24T08:54:12.628Z,6.30
2023-03-24T08:55:16.730Z,6.60
2023-03-24T08:56:20.386Z,6.00
2023-03-24T08:57:23.260Z,6.10
2023-03-24T08:58:26.151Z,6.30
2023-03-24T08:59:29.054Z,6.50
2023-03-24T09:00:31.877Z,6.60
2023-03-24T09:01:35.399Z,6.60
2023-03-24T09:02:38.197Z,6.90
2023-03-24T09:03:41.470Z,6.40
2023-03-24T09:04:45.956Z,6.80
2023-03-24T09:05:49.245Z,6.50
2023-03-24T09:06:53.664Z,6.90
2023-03-24T09:07:56.603Z,7.10
2023-03-24T09:08:59.398Z,6.60
2023-03-24T09:10:02.792Z,6.90
2023-03-24T09:11:06.096Z,6.70
2023-03-24T09:12:09.861Z,6.20
2023-03-24T09:13:13.178Z,6.30
2023-03-24T09:14:16.123Z,6.20
2023-03-24T09:15:18.967Z,6.30
2023-03-24T09:17:26.249Z,5.80
2023-03-24T09:18:29.398Z,6.50
2023-03-24T09:19:32.163Z,6.50
2023-03-24T09:20:34.983Z,6.60
2023-03-24T09:21:38.527Z,5.60
2023-03-24T09:22:44.216Z,6.30
2023-03-24T09:23:47.051Z,5.50
2023-03-24T09:24:50.149Z,5.50
2023-03-24T09:25:53.902Z,6.20
2023-03-24T09:26:56.758Z,6.10
2023-03-24T09:27:59.559Z,5.50
2023-03-24T09:29:02.740Z,5.00
2023-03-24T09:30:06.966Z,5.80
2023-03-24T09:31:11.719Z,5.60
2023-03-24T09:32:14.529Z,5.80
2023-03-24T09:33:17.734Z,5.30
2023-03-24T09:34:21.520Z,5.00
2023-03-24T09:35:25.753Z,5.20
2023-03-24T09:36:30.070Z,5.20
2023-03-24T09:37:35.821Z,5.50
2023-03-24T09:38:38.589Z,5.20
2023-03-24T09:39:41.317Z,5.80
2023-03-24T09:40:45.037Z,5.80
2023-03-24T09:41:50.573Z,5.60
2023-03-24T09:43:34.903Z,5.90
2023-03-24T09:44:43.350Z,5.10
2023-03-24T09:45:57.599Z,5.30
2023-03-24T09:47:06.578Z,5.40
2023-03-24T09:48:18.554Z,5.50
2023-03-24T09:49:25.306Z,5.20
2023-03-24T09:50:34.982Z,5.60
2023-03-24T09:52:53.882Z,5.10
2023-03-24T09:54:02.664Z,5.40
2023-03-24T09:55:14.381Z,5.70
2023-03-24T09:56:20.838Z,6.00
2023-03-24T09:57:34.427Z,5.50
2023-03-24T09:58:41.525Z,5.50
2023-03-24T09:59:44.329Z,5.00
2023-03-24T10:00:47.377Z,4.80
2023-03-24T10:01:50.747Z,5.30
2023-03-24T10:02:57.633Z,5.10
2023-03-24T10:04:00.779Z,5.50
2023-03-24T10:05:13.282Z,5.50
2023-03-24T10:06:26.866Z,4.90
2023-03-24T10:08:09.415Z,4.90
2023-03-24T10:09:21.900Z,5.70
2023-03-24T10:10:36.709Z,5.50
2023-03-24T10:11:52.556Z,4.80
2023-03-24T10:13:05.210Z,5.10
2023-03-24T10:14:22.412Z,5.10
2023-03-24T10:15:49.143Z,5.10
2023-03-24T10:16:58.090Z,4.80
2023-03-24T10:18:05.303Z,5.70
2023-03-24T10:19:27.835Z,4.80
2023-03-24T10:20:41.292Z,5.20
2023-03-24T10:22:11.180Z,4.80
2023-03-24T10:23:31.466Z,5.50
2023-03-24T10:24:56.878Z,5.00
2023-03-24T10:26:14.354Z,4.80
2023-03-24T10:27:17.055Z,5.20
2023-03-24T10:28:38.389Z,5.00
2023-03-24T10:29:43.186Z,5.20
2023-03-24T10:30:49.533Z,5.40
2023-03-24T10:32:02.550Z,4.80
2023-03-24T10:33:05.493Z,4.60
2023-03-24T10:34:12.726Z,4.70
2023-03-24T10:35:21.514Z,4.80
2023-03-24T10:36:25.285Z,5.40
2023-03-24T10:37:31.016Z,4.30
2023-03-24T10:38:34.056Z,4.50
2023-03-24T10:39:44.921Z,4.60
2023-03-24T10:40:49.422Z,4.40
2023-03-24T10:41:54.751Z,4.30
2023-03-24T10:43:07.126Z,4.90
2023-03-24T10:44:14.117Z,4.00
2023-03-24T10:45:27.050Z,4.40
2023-03-24T10:46:32.113Z,4.50
2023-03-24T10:47:35.018Z,4.50
2023-03-24T10:48:44.682Z,4.00
2023-03-24T10:50:59.732Z,4.50
2023-03-24T10:52:09.108Z,3.80
2023-03-24T10:53:19.896Z,4.10
2023-03-24T10:54:25.533Z,4.60
2023-03-24T10:55:39.020Z,3.40
2023-03-24T10:56:52.067Z,4.30
2023-03-24T10:57:57.693Z,4.20
2023-03-24T10:59:00.493Z,4.20
2023-03-24T11:00:19.345Z,4.20
2023-03-24T11:01:27.327Z,3.90
2023-03-24T11:02:31.944Z,3.70
2023-03-24T11:03:37.854Z,4.40
2023-03-24T11:04:45.003Z,3.70
2023-03-24T11:05:47.981Z,4.60
2023-03-24T11:07:16.168Z,3.90
2023-03-24T11:08:28.754Z,4.00
2023-03-24T11:09:42.900Z,4.50
2023-03-24T11:10:46.520Z,3.90
2023-03-24T11:11:50.836Z,4.00
2023-03-24T11:12:53.521Z,3.90
2023-03-24T11:14:01.446Z,4.10
2023-03-24T11:15:21.774Z,3.90
2023-03-24T11:16:36.771Z,3.70
2023-03-24T11:17:39.664Z,4.30
2023-03-24T11:19:22.977Z,4.10
2023-03-24T11:20:39.389Z,4.40
2023-03-24T11:23:10.684Z,4.20
2023-03-24T11:24:17.131Z,3.90
2023-03-24T11:25:19.912Z,4.40
2023-03-24T11:26:37.487Z,4.30
2023-03-24T11:27:43.446Z,4.00
2023-03-24T11:28:47.237Z,4.60
2023-03-24T11:29:54.611Z,4.40
2023-03-24T11:30:58.153Z,4.10
2023-03-24T11:32:05.506Z,4.90
2023-03-24T11:33:19.165Z,4.40
2023-03-24T11:34:34.329Z,4.60
2023-03-24T11:35:42.107Z,4.40
2023-03-24T11:36:54.616Z,4.20
2023-03-24T11:37:57.430Z,4.20
2023-03-24T11:39:03.796Z,4.30
2023-03-24T11:40:12.283Z,4.80
2023-03-24T11:41:21.848Z,4.70
2023-03-24T11:42:27.756Z,4.50
2023-03-24T11:43:31.622Z,4.30
2023-03-24T11:44:53.364Z,4.50
2023-03-24T11:46:13.560Z,4.60
2023-03-24T11:47:38.544Z,4.10
2023-03-24T11:48:52.522Z,3.60
2023-03-24T11:50:10.412Z,4.80
2023-03-24T11:51:19.128Z,3.90
2023-03-24T11:52:31.500Z,4.50
2023-03-24T11:53:51.614Z,3.70
2023-03-24T11:54:54.514Z,3.90
2023-03-24T11:56:16.668Z,3.80
2023-03-24T11:57:35.586Z,3.90
2023-03-24T11:58:46.919Z,4.10
2023-03-24T11:59:58.281Z,3.40
2023-03-24T12:01:05.400Z,4.20
2023-03-24T12:02:08.108Z,3.90
2023-03-24T12:03:20.317Z,3.80
2023-03-24T12:04:44.394Z,3.50
2023-03-24T12:06:26.144Z,3.00
2023-03-24T12:07:50.042Z,3.30
2023-03-24T12:09:34.493Z,3.20
2023-03-24T12:11:16.737Z,3.30
2023-03-24T12:12:45.425Z,3.00
2023-03-24T12:13:52.062Z,3.20
2023-03-24T12:15:27.967Z,3.10
2023-03-24T12:16:42.036Z,3.20
2023-03-24T12:18:09.998Z,3.10
2023-03-24T12:19:44.162Z,3.20
2023-03-24T12:20:58.515Z,2.70
2023-03-24T12:22:13.283Z,2.60
2023-03-24T12:23:46.687Z,2.80
2023-03-24T12:25:08.136Z,2.70
2023-03-24T12:26:17.495Z,2.70
2023-03-24T12:27:36.512Z,2.70
2023-03-24T12:29:43.674Z,2.70
2023-03-24T12:31:11.998Z,3.10
2023-03-24T12:32:43.188Z,2.90
2023-03-24T12:34:36.505Z,2.60
2023-03-24T12:35:51.371Z,3.10
2023-03-24T12:36:54.263Z,2.60
2023-03-24T12:38:32.392Z,2.90
2023-03-24T12:39:44.951Z,3.00
2023-03-24T12:41:12.209Z,3.00
2023-03-24T12:42:21.016Z,2.90
2023-03-24T12:43:41.252Z,3.00
2023-03-24T12:44:46.833Z,2.70
2023-03-24T12:45:54.030Z,2.80
2023-03-24T12:46:56.757Z,3.30
2023-03-24T12:48:21.048Z,3.20
2023-03-24T12:49:23.880Z,2.70
2023-03-24T12:50:51.457Z,3.20
2023-03-24T12:52:16.710Z,2.90
2023-03-24T12:53:41.979Z,2.80
2023-03-24T12:54:50.473Z,2.70
2023-03-24T12:55:59.901Z,2.70
2023-03-24T12:57:10.592Z,2.50
2023-03-24T12:58:43.120Z,2.80
2023-03-24T12:59:57.725Z,2.70
2023-03-24T13:01:04.591Z,2.50
2023-03-24T13:02:28.636Z,2.40
2023-03-24T13:03:41.574Z,4.20
2023-03-24T13:04:48.445Z,3.20
2023-03-24T13:05:59.801Z,2.80
2023-03-24T13:07:12.655Z,2.60
2023-03-24T13:08:23.746Z,2.30
2023-03-24T13:09:47.710Z,2.30
2023-03-24T13:10:54.518Z,2.20
2023-03-24T13:12:07.991Z,2.40
2023-03-24T13:13:20.418Z,2.20
2023-03-24T13:14:31.309Z,2.20
2023-03-24T13:15:38.708Z,2.20
2023-03-24T13:16:45.035Z,2.10
2023-03-24T13:18:09.136Z,2.30
2023-03-24T13:19:24.189Z,2.40
2023-03-24T13:20:33.534Z,2.30
2023-03-24T13:21:37.789Z,2.20
2023-03-24T13:22:41.392Z,1.90
2023-03-24T13:23:54.948Z,2.60
2023-03-24T13:24:58.284Z,2.10
2023-03-24T13:26:25.830Z,2.30
2023-03-24T13:27:41.398Z,2.10
2023-03-24T13:28:56.371Z,1.80
2023-03-24T13:30:28.292Z,1.70
2023-03-24T13:31:56.932Z,2.10
2023-03-24T13:33:06.126Z,2.10
2023-03-24T13:34:21.103Z,2.00
2023-03-24T13:35:59.395Z,1.90
2023-03-24T13:37:15.507Z,1.90
2023-03-24T13:38:33.020Z,2.00
2023-03-24T13:39:36.450Z,2.30
2023-03-24T13:40:40.743Z,1.80
2023-03-24T13:41:53.059Z,1.90
2023-03-24T13:43:06.876Z,1.90
2023-03-24T13:44:20.511Z,2.00
2023-03-24T13:45:32.174Z,2.10
2023-03-24T13:46:41.658Z,2.30
2023-03-24T13:48:54.901Z,2.30
2023-03-24T13:50:04.255Z,1.90
2023-03-24T13:52:40.159Z,2.00
2023-03-24T13:53:51.943Z,1.90
2023-03-24T13:54:59.772Z,2.30
2023-03-24T13:56:05.731Z,1.90
2023-03-24T13:57:20.493Z,1.90
2023-03-24T13:58:28.349Z,2.60
2023-03-24T13:59:38.921Z,2.50
2023-03-24T14:01:09.719Z,2.10
2023-03-24T14:02:44.087Z,2.30
2023-03-24T14:05:23.956Z,2.20
2023-03-24T14:06:51.253Z,1.90
2023-03-24T14:08:03.105Z,1.50
2023-03-24T14:09:14.781Z,2.10
2023-03-24T14:10:19.134Z,2.30
2023-03-24T14:12:03.742Z,1.80
2023-03-24T14:13:12.598Z,2.20
2023-03-24T14:14:15.480Z,2.40
2023-03-24T14:15:30.020Z,1.80
2023-03-24T14:16:41.456Z,1.90
2023-03-24T14:17:49.819Z,2.30
2023-03-24T14:19:09.304Z,2.10
2023-03-24T14:21:28.570Z,2.10
2023-03-24T14:22:36.330Z,2.00
2023-03-24T14:23:48.202Z,1.60
2023-03-24T14:25:02.882Z,2.00
2023-03-24T14:26:34.382Z,1.70
2023-03-24T14:27:42.465Z,1.60
2023-03-24T14:28:50.396Z,1.50
2023-03-24T14:29:54.330Z,1.70
2023-03-24T14:31:13.347Z,1.70
2023-03-24T14:32:20.661Z,1.90
2023-03-24T14:33:25.920Z,1.70
2023-03-24T14:34:30.029Z,2.10
2023-03-24T14:35:32.772Z,2.20
2023-03-24T14:36:41.068Z,1.90
2023-03-24T14:37:52.090Z,1.60
2023-03-24T14:38:55.081Z,1.90
2023-03-24T14:39:58.935Z,1.70
2023-03-24T14:41:07.930Z,1.70
2023-03-24T14:42:33.704Z,2.10
2023-03-24T14:43:39.595Z,1.80
2023-03-24T14:45:27.674Z,1.70
2023-03-24T14:46:43.052Z,2.20
2023-03-24T14:47:46.026Z,1.80
2023-03-24T14:49:26.067Z,2.00
2023-03-24T14:50:29.083Z,1.90
2023-03-24T14:51:36.897Z,1.90
2023-03-24T14:52:51.205Z,2.20
2023-03-24T14:53:58.011Z,1.80
2023-03-24T14:55:06.010Z,1.70
2023-03-24T14:56:15.457Z,1.80
2023-03-24T14:58:39.566Z,1.90
2023-03-24T15:00:16.242Z,1.60
2023-03-24T15:01:20.408Z,1.90
2023-03-24T15:02:31.635Z,1.50
2023-03-24T15:03:39.356Z,1.80
2023-03-24T15:05:23.089Z,1.60
2023-03-24T15:06:26.209Z,2.00
2023-03-24T15:07:29.035Z,1.90
2023-03-24T15:08:31.771Z,1.90
2023-03-24T15:09:38.601Z,1.70
2023-03-24T15:11:04.783Z,2.00
2023-03-24T15:12:08.041Z,2.30
2023-03-24T15:13:40.381Z,1.70
2023-03-24T15:14:43.850Z,1.90
2023-03-24T15:15:47.774Z,1.80
2023-03-24T15:16:53.974Z,2.00
2023-03-24T15:17:56.849Z,1.90
2023-03-24T15:19:06.305Z,1.70
2023-03-24T15:20:21.782Z,1.80
2023-03-24T15:21:32.619Z,2.30
2023-03-24T15:22:41.630Z,2.50
2023-03-24T15:23:48.972Z,1.90
2023-03-24T15:24:52.427Z,2.40
2023-03-24T15:25:56.446Z,2.00
2023-03-24T15:27:06.590Z,1.90
2023-03-24T15:28:22.039Z,2.20
2023-03-24T15:29:25.689Z,2.50
2023-03-24T15:30:28.838Z,2.60
2023-03-24T15:31:32.600Z,2.90
2023-03-24T15:32:39.127Z,2.50
2023-03-24T15:33:43.410Z,2.30
2023-03-24T15:34:59.820Z,2.30
2023-03-24T15:36:04.065Z,2.10
2023-03-24T15:37:21.872Z,2.00
2023-03-24T15:38:30.724Z,2.50
2023-03-24T15:39:36.846Z,2.20
2023-03-24T15:40:41.700Z,2.20
2023-03-24T15:41:46.217Z,2.80
2023-03-24T15:42:49.240Z,2.60
2023-03-24T15:43:53.909Z,2.60
2023-03-24T15:45:11.947Z,2.60
2023-03-24T15:46:29.532Z,2.20
2023-03-24T15:47:37.128Z,1.80
2023-03-24T15:48:40.066Z,2.30
2023-03-24T15:50:05.896Z,1.90
2023-03-24T15:51:11.673Z,2.10
2023-03-24T15:52:34.941Z,2.50
2023-03-24T15:53:44.518Z,2.10